createdAt,value
2023-05-20T00:00:11.125Z,13.10
2023-05-20T00:02:40.936Z,13.00
2023-05-20T00:05:09.707Z,13.00
2023-05-20T00:07:37.748Z,13.00
2023-05-20T00:10:06.158Z,12.90
2023-05-20T00:12:35.048Z,12.90
2023-05-20T00:15:03.182Z,12.80
2023-05-20T00:17:32.317Z,12.90
2023-05-20T00:20:01.685Z,12.80
2023-05-20T00:22:29.586Z,12.80
2023-05-20T00:24:57.565Z,12.80
2023-05-20T00:27:25.625Z,12.80
2023-05-20T00:29:53.765Z,12.70
2023-05-20T00:32:21.883Z,12.70
2023-05-20T00:34:57.879Z,12.70
2023-05-20T00:37:27.714Z,12.70
2023-05-20T00:39:55.873Z,12.70
2023-05-20T00:42:24.094Z,12.60
2023-05-20T00:44:52.490Z,12.50
2023-05-20T00:47:22.341Z,12.50
2023-05-20T00:49:52.493Z,12.50
2023-05-20T00:52:20.856Z,12.40
2023-05-20T00:54:50.985Z,12.40
2023-05-20T00:57:20.502Z,12.50
2023-05-20T00:59:48.460Z,12.40
2023-05-20T01:02:16.696Z,12.40
2023-05-20T01:04:47.180Z,12.30
2023-05-20T01:07:17.463Z,12.40
2023-05-20T01:09:45.986Z,12.30
2023-05-20T01:12:20.763Z,12.30
2023-05-20T01:14:51.342Z,12.20
2023-05-20T01:17:22.207Z,12.30
2023-05-20T01:19:50.861Z,12.30
2023-05-20T01:22:18.913Z,12.20
2023-05-20T01:24:49.246Z,12.10
2023-05-20T01:27:17.148Z,12.10
2023-05-20T01:29:45.930Z,12.10
2023-05-20T01:32:20.195Z,12.10
2023-05-20T01:34:50.986Z,12.00
2023-05-20T01:37:20.299Z,12.00
2023-05-20T01:39:51.390Z,11.90
2023-05-20T01:42:20.710Z,11.90
2023-05-20T01:44:48.804Z,11.90
2023-05-20T01:47:16.697Z,11.90
2023-05-20T01:49:46.127Z,11.90
2023-05-20T01:52:14.186Z,11.80
2023-05-20T01:54:42.124Z,11.80
2023-05-20T01:57:11.415Z,11.70
2023-05-20T01:59:39.676Z,11.70
2023-05-20T02:02:07.602Z,11.60
2023-05-20T02:04:35.549Z,11.70
2023-05-20T02:07:03.477Z,11.60
2023-05-20T02:09:31.489Z,11.80
2023-05-20T02:11:59.471Z,11.60
2023-05-20T02:14:28.724Z,11.60
2023-05-20T02:16:56.604Z,11.60
2023-05-20T02:19:24.680Z,11.60
2023-05-20T02:21:52.706Z,11.50
2023-05-20T02:24:21.529Z,11.50
2023-05-20T02:26:51.170Z,11.50
2023-05-20T02:29:19.993Z,11.50
2023-05-20T02:31:49.570Z,11.40
2023-05-20T02:34:19.181Z,11.40
2023-05-20T02:36:47.212Z,11.40
2023-05-20T02:39:15.613Z,11.40
2023-05-20T02:41:43.656Z,11.40
2023-05-20T02:44:11.657Z,11.30
2023-05-20T02:46:39.693Z,11.30
2023-05-20T02:49:09.074Z,11.30
2023-05-20T02:51:37.546Z,11.30
2023-05-20T02:54:05.608Z,11.30
2023-05-20T02:56:34.347Z,11.30
2023-05-20T02:59:03.659Z,11.30
2023-05-20T03:01:33.757Z,11.30
2023-05-20T03:04:02.039Z,11.20
2023-05-20T03:06:32.031Z,11.20
2023-05-20T03:09:00.105Z,11.20
2023-05-20T03:11:28.158Z,11.20
2023-05-20T03:13:56.074Z,11.20
2023-05-20T03:16:25.223Z,11.20
2023-05-20T03:18:54.615Z,11.20
2023-05-20T03:21:23.925Z,11.20
2023-05-20T03:23:53.390Z,11.20
2023-05-20T03:26:21.737Z,11.20
2023-05-20T03:28:49.688Z,11.30
2023-05-20T03:31:17.732Z,11.20
2023-05-20T03:33:46.285Z,11.20
2023-05-20T03:36:14.238Z,11.20
2023-05-20T03:38:42.197Z,11.20
2023-05-20T03:41:11.800Z,11.20
2023-05-20T03:43:39.985Z,11.20
2023-05-20T03:46:07.931Z,11.20
2023-05-20T03:48:36.120Z,11.20
2023-05-20T03:51:04.092Z,11.20
2023-05-20T03:53:32.178Z,11.20
2023-05-20T03:56:00.192Z,11.20
2023-05-20T03:58:29.733Z,11.20
2023-05-20T04:00:57.704Z,11.30
2023-05-20T04:03:26.104Z,11.20
2023-05-20T04:05:54.159Z,11.20
2023-05-20T04:08:22.151Z,11.20
2023-05-20T04:10:50.084Z,11.20
2023-05-20T04:13:18.018Z,11.20
2023-05-20T04:15:48.191Z,11.10
2023-05-20T04:18:16.209Z,11.30
2023-05-20T04:20:44.766Z,11.10
2023-05-20T04:23:12.722Z,11.10
2023-05-20T04:25:41.245Z,11.10
2023-05-20T04:28:10.630Z,11.10
2023-05-20T04:30:38.709Z,11.10
2023-05-20T04:33:08.119Z,11.10
2023-05-20T04:35:37.659Z,11.20
2023-05-20T04:38:05.633Z,11.20
2023-05-20T04:40:33.983Z,11.20
2023-05-20T04:43:01.939Z,11.20
2023-05-20T04:45:29.942Z,11.20
2023-05-20T04:47:58.028Z,11.20
2023-05-20T04:50:27.425Z,11.20
2023-05-20T04:52:55.627Z,11.20
2023-05-20T04:55:25.050Z,11.20
2023-05-20T04:57:52.989Z,11.20
2023-05-20T05:00:20.956Z,11.30
2023-05-20T05:02:48.933Z,11.30
2023-05-20T05:05:17.097Z,11.40
2023-05-20T05:07:46.417Z,11.40
2023-05-20T05:10:15.691Z,11.40
2023-05-20T05:12:43.631Z,11.50
2023-05-20T05:15:12.254Z,11.50
2023-05-20T05:17:40.277Z,11.50
2023-05-20T05:20:09.916Z,11.50
2023-05-20T05:22:39.664Z,11.50
2023-05-20T05:25:10.607Z,11.60
2023-05-20T05:27:38.785Z,11.60
2023-05-20T05:30:08.250Z,11.70
2023-05-20T05:32:37.652Z,11.70
2023-05-20T05:35:08.128Z,11.80
2023-05-20T05:37:36.389Z,11.90
2023-05-20T05:40:04.620Z,11.90
2023-05-20T05:42:33.950Z,12.00
2023-05-20T05:45:01.890Z,12.00
2023-05-20T05:47:32.590Z,12.00
2023-05-20T05:50:00.910Z,12.10
2023-05-20T05:52:28.907Z,12.10
2023-05-20T05:54:56.899Z,12.20
2023-05-20T05:57:24.957Z,12.20
2023-05-20T05:59:54.311Z,12.40
2023-05-20T06:02:23.254Z,12.40
2023-05-20T06:04:51.264Z,12.50
2023-05-20T06:07:19.264Z,12.50
2023-05-20T06:09:47.280Z,12.50
2023-05-20T06:12:15.259Z,12.60
2023-05-20T06:14:43.218Z,12.60
2023-05-20T06:17:12.569Z,12.70
2023-05-20T06:19:40.696Z,12.70
2023-05-20T06:22:09.124Z,12.70
2023-05-20T06:24:37.109Z,12.70
2023-05-20T06:27:05.224Z,12.80
2023-05-20T06:29:33.152Z,12.80
2023-05-20T06:32:01.372Z,12.80
2023-05-20T06:34:30.649Z,12.90
2023-05-20T06:36:58.649Z,13.00
2023-05-20T06:39:26.718Z,13.00
2023-05-20T06:41:54.717Z,13.10
2023-05-20T06:44:22.754Z,13.10
2023-05-20T06:46:50.806Z,13.20
2023-05-20T06:49:18.850Z,13.20
2023-05-20T06:51:48.117Z,13.30
2023-05-20T06:54:16.042Z,13.30
2023-05-20T06:56:44.315Z,13.40
2023-05-20T06:59:12.280Z,13.50
2023-05-20T07:01:40.377Z,13.60
2023-05-20T07:04:08.377Z,13.60
2023-05-20T07:06:36.342Z,13.70
2023-05-20T07:09:05.689Z,13.80
2023-05-20T07:11:33.658Z,13.90
2023-05-20T07:14:01.639Z,13.90
2023-05-20T07:16:32.476Z,14.00
2023-05-20T07:19:00.490Z,14.00
2023-05-20T07:21:28.529Z,14.10
2023-05-20T07:23:56.432Z,14.20
2023-05-20T07:26:25.785Z,14.30
2023-05-20T07:28:53.815Z,14.40
2023-05-20T07:31:21.768Z,14.40
2023-05-20T07:33:49.675Z,14.50
2023-05-20T07:36:17.626Z,14.60
2023-05-20T07:38:53.055Z,14.70
2023-05-20T07:41:31.648Z,14.70
2023-05-20T07:43:59.663Z,14.80
2023-05-20T07:46:27.803Z,14.90
2023-05-20T07:48:55.812Z,15.00
2023-05-20T07:51:24.394Z,15.10
2023-05-20T07:53:52.450Z,15.10
2023-05-20T07:56:20.472Z,15.20
2023-05-20T07:58:55.680Z,15.30
2023-05-20T08:01:23.643Z,15.30
2023-05-20T08:03:52.001Z,15.40
2023-05-20T08:06:20.571Z,15.50
2023-05-20T08:08:48.548Z,15.50
2023-05-20T08:11:16.501Z,15.60
2023-05-20T08:13:44.393Z,15.60
2023-05-20T08:16:13.784Z,15.80
2023-05-20T08:18:41.769Z,15.90
2023-05-20T08:21:09.921Z,16.00
2023-05-20T08:23:40.424Z,15.90
2023-05-20T08:26:08.761Z,16.00
2023-05-20T08:28:37.905Z,16.10
2023-05-20T08:31:06.077Z,16.20
2023-05-20T08:33:35.509Z,16.30
2023-05-20T08:36:03.544Z,16.30
2023-05-20T08:38:31.552Z,16.40
2023-05-20T08:41:00.421Z,16.50
2023-05-20T08:43:30.190Z,16.60
2023-05-20T08:45:58.147Z,16.60
2023-05-20T08:48:27.764Z,16.70
2023-05-20T08:50:59.277Z,16.80
2023-05-20T08:53:28.017Z,16.80
2023-05-20T08:56:00.864Z,16.90
2023-05-20T08:58:29.591Z,17.00
2023-05-20T09:00:58.779Z,17.00
2023-05-20T09:03:26.995Z,17.20
2023-05-20T09:06:05.310Z,17.20
2023-05-20T09:08:34.088Z,17.30
2023-05-20T09:11:02.548Z,17.40
2023-05-20T09:13:32.582Z,17.40
2023-05-20T09:16:02.023Z,17.40
2023-05-20T09:18:30.989Z,17.50
2023-05-20T09:21:06.950Z,17.70
2023-05-20T09:23:37.665Z,17.80
2023-05-20T09:26:05.779Z,17.80
2023-05-20T09:28:36.008Z,17.80
2023-05-20T09:31:03.945Z,17.90
2023-05-20T09:33:32.475Z,18.00
2023-05-20T09:36:09.528Z,18.10
2023-05-20T09:38:40.440Z,18.10
2023-05-20T09:41:09.760Z,18.20
2023-05-20T09:43:37.860Z,18.20
2023-05-20T09:46:06.054Z,18.40
2023-05-20T09:48:36.339Z,18.50
2023-05-20T09:51:08.099Z,18.60
2023-05-20T09:53:36.917Z,18.60
2023-05-20T09:56:05.261Z,18.80
2023-05-20T09:58:36.646Z,18.80
2023-05-20T10:01:04.808Z,18.90
2023-05-20T10:03:34.148Z,18.90
2023-05-20T10:06:21.391Z,18.90
2023-05-20T10:09:05.906Z,19.10
2023-05-20T10:11:41.328Z,19.30
2023-05-20T10:14:29.940Z,19.30
2023-05-20T10:17:08.774Z,19.50
2023-05-20T10:19:37.107Z,19.70
2023-05-20T10:22:08.592Z,19.80
2023-05-20T10:24:38.300Z,19.50
2023-05-20T10:27:11.534Z,19.80
2023-05-20T10:32:26.114Z,20.10
2023-05-20T10:34:55.596Z,20.10
2023-05-20T10:37:30.061Z,20.30
2023-05-20T10:40:12.112Z,20.50
2023-05-20T10:42:40.402Z,20.50
2023-05-20T10:45:09.775Z,20.80
2023-05-20T10:47:38.224Z,20.90
2023-05-20T10:50:07.699Z,21.00
2023-05-20T10:52:38.165Z,21.20
2023-05-20T10:55:07.564Z,21.30
2023-05-20T10:57:35.798Z,21.40
2023-05-20T11:00:10.803Z,21.60
2023-05-20T11:02:39.580Z,21.60
2023-05-20T11:05:12.108Z,21.30
2023-05-20T11:07:41.466Z,21.10
2023-05-20T11:10:11.042Z,21.30
2023-05-20T11:12:40.110Z,21.80
2023-05-20T11:15:09.107Z,22.00
2023-05-20T11:17:37.175Z,22.00
2023-05-20T11:20:05.719Z,21.70
2023-05-20T11:22:33.722Z,22.00
2023-05-20T11:25:07.250Z,22.10
2023-05-20T11:27:35.205Z,22.20
2023-05-20T11:30:04.009Z,22.20
2023-05-20T11:32:32.386Z,22.10
2023-05-20T11:35:00.389Z,22.30
2023-05-20T11:37:28.349Z,22.50
2023-05-20T11:40:08.991Z,22.50
2023-05-20T11:42:37.401Z,22.40
2023-05-20T11:45:06.064Z,22.40
2023-05-20T11:47:34.002Z,22.50
2023-05-20T11:50:02.817Z,22.50
2023-05-20T11:52:30.815Z,22.60
2023-05-20T11:54:58.792Z,22.40
2023-05-20T11:57:28.105Z,22.50
2023-05-20T11:59:56.087Z,22.10
2023-05-20T12:02:24.127Z,22.40
2023-05-20T12:04:52.425Z,22.40
2023-05-20T12:07:20.380Z,22.40
2023-05-20T12:09:48.307Z,22.50
2023-05-20T12:12:16.604Z,22.70
2023-05-20T12:14:46.019Z,23.00
2023-05-20T12:17:13.953Z,23.10
2023-05-20T12:19:42.260Z,22.90
2023-05-20T12:22:10.329Z,23.00
2023-05-20T12:24:38.323Z,23.00
2023-05-20T12:27:07.731Z,23.20
2023-05-20T12:29:37.468Z,23.20
2023-05-20T12:32:07.991Z,22.90
2023-05-20T12:34:36.046Z,23.20
2023-05-20T12:37:04.102Z,23.20
2023-05-20T12:39:32.048Z,22.80
2023-05-20T12:42:00.013Z,22.70
2023-05-20T12:44:28.272Z,22.70
2023-05-20T12:46:56.468Z,23.10
2023-05-20T12:49:25.794Z,23.50
2023-05-20T12:51:53.826Z,23.50
2023-05-20T12:54:21.824Z,23.90
2023-05-20T12:56:49.856Z,23.90
2023-05-20T12:59:17.839Z,24.00
2023-05-20T13:01:46.428Z,24.10
2023-05-20T13:04:14.469Z,23.80
2023-05-20T13:06:44.123Z,23.80
2023-05-20T13:09:12.579Z,23.50
2023-05-20T13:11:40.942Z,23.70
2023-05-20T13:14:08.876Z,24.10
2023-05-20T13:16:36.878Z,24.60
2023-05-20T13:19:04.892Z,24.80
2023-05-20T13:21:32.875Z,24.40
2023-05-20T13:24:02.581Z,24.20
2023-05-20T13:26:30.740Z,24.10
2023-05-20T13:28:58.733Z,24.10
2023-05-20T13:31:26.724Z,24.00
2023-05-20T13:33:55.217Z,24.20
2023-05-20T13:36:23.253Z,24.50
2023-05-20T13:38:51.481Z,24.60
2023-05-20T13:41:20.821Z,24.30
2023-05-20T13:43:48.755Z,24.00
2023-05-20T13:46:18.253Z,24.10
2023-05-20T13:48:46.404Z,23.90
2023-05-20T13:51:14.465Z,23.80
2023-05-20T13:53:42.498Z,23.70
2023-05-20T13:56:10.541Z,23.90
2023-05-20T13:58:40.443Z,23.90
2023-05-20T14:01:08.422Z,23.80
2023-05-20T14:03:37.459Z,23.80
2023-05-20T14:06:05.941Z,24.30
2023-05-20T14:08:34.175Z,24.70
2023-05-20T14:11:02.144Z,24.90
2023-05-20T14:13:30.101Z,25.30
2023-05-20T14:15:59.533Z,25.30
2023-05-20T14:18:27.593Z,25.30
2023-05-20T14:20:56.362Z,25.20
2023-05-20T14:23:24.413Z,25.30
2023-05-20T14:25:52.385Z,25.20
2023-05-20T14:28:20.359Z,25.40
2023-05-20T14:30:48.302Z,25.20
2023-05-20T14:33:17.600Z,24.90
2023-05-20T14:35:45.577Z,25.00
2023-05-20T14:38:13.552Z,24.70
2023-05-20T14:40:41.560Z,24.70
2023-05-20T14:43:09.541Z,24.70
2023-05-20T14:45:37.469Z,25.10
2023-05-20T14:48:06.887Z,25.20
2023-05-20T14:50:36.578Z,25.30
2023-05-20T14:53:05.538Z,25.90
2023-05-20T14:55:33.606Z,25.60
2023-05-20T14:58:01.787Z,25.30
2023-05-20T15:00:29.770Z,25.40
2023-05-20T15:02:57.794Z,25.90
2023-05-20T15:05:26.133Z,26.10
2023-05-20T15:07:55.533Z,26.30
2023-05-20T15:10:23.594Z,26.60
2023-05-20T15:12:53.358Z,27.10
2023-05-20T15:15:22.132Z,27.20
2023-05-20T15:17:50.399Z,27.20
2023-05-20T15:20:18.748Z,27.20
2023-05-20T15:22:48.119Z,27.20
2023-05-20T15:25:17.642Z,27.70
2023-05-20T15:27:45.671Z,28.00
2023-05-20T15:30:15.067Z,28.00
2023-05-20T15:32:43.833Z,28.00
2023-05-20T15:35:11.830Z,28.30
2023-05-20T15:37:39.915Z,28.10
2023-05-20T15:40:09.959Z,28.10
2023-05-20T15:42:39.360Z,28.30
2023-05-20T15:45:08.248Z,28.60
2023-05-20T15:47:36.760Z,28.70
2023-05-20T15:50:08.415Z,28.80
2023-05-20T15:52:36.985Z,28.70
2023-05-20T15:55:05.493Z,28.70
2023-05-20T15:57:33.660Z,28.70
2023-05-20T16:00:05.746Z,29.10
2023-05-20T16:02:36.238Z,29.20
2023-05-20T16:05:05.026Z,29.40
2023-05-20T16:07:33.192Z,29.10
2023-05-20T16:10:01.460Z,29.20
2023-05-20T16:12:29.826Z,29.00
2023-05-20T16:14:57.794Z,29.20
2023-05-20T16:17:27.094Z,29.30
2023-05-20T16:19:55.281Z,29.50
2023-05-20T16:22:23.506Z,29.50
2023-05-20T16:24:51.522Z,29.50
2023-05-20T16:27:19.456Z,29.70
2023-05-20T16:29:47.417Z,29.10
2023-05-20T16:32:15.465Z,29.10
2023-05-20T16:34:44.744Z,29.40
2023-05-20T16:37:13.082Z,29.30
2023-05-20T16:39:41.325Z,28.80
2023-05-20T16:42:09.844Z,29.20
2023-05-20T16:44:39.058Z,29.50
2023-05-20T16:47:07.958Z,29.30
2023-05-20T16:49:36.041Z,29.10
2023-05-20T16:52:06.024Z,28.80
2023-05-20T16:54:36.196Z,28.80
2023-05-20T16:57:04.551Z,29.20
2023-05-20T16:59:34.911Z,29.10
2023-05-20T17:02:02.870Z,29.00
2023-05-20T17:04:31.162Z,29.00
2023-05-20T17:07:01.627Z,28.90
2023-05-20T17:09:31.538Z,29.10
2023-05-20T17:11:59.458Z,29.20
2023-05-20T17:14:27.387Z,29.10
2023-05-20T17:16:55.346Z,29.00
2023-05-20T17:19:23.474Z,28.80
2023-05-20T17:21:51.497Z,28.70
2023-05-20T17:24:19.453Z,28.40
2023-05-20T17:26:48.772Z,28.40
2023-05-20T17:29:16.748Z,28.60
2023-05-20T17:31:45.489Z,28.70
2023-05-20T17:34:13.782Z,28.20
2023-05-20T17:36:41.771Z,28.00
2023-05-20T17:39:09.867Z,28.30
2023-05-20T17:41:37.901Z,28.40
2023-05-20T17:44:07.829Z,28.40
2023-05-20T17:46:35.891Z,28.30
2023-05-20T17:49:03.898Z,28.50
2023-05-20T17:51:31.939Z,28.80
2023-05-20T17:54:02.623Z,28.80
2023-05-20T17:56:30.860Z,28.10
2023-05-20T17:58:58.851Z,28.00
2023-05-20T18:01:28.290Z,28.00
2023-05-20T18:03:59.940Z,27.80
2023-05-20T18:06:29.970Z,27.50
2023-05-20T18:08:59.925Z,27.50
2023-05-20T18:11:27.925Z,27.50
2023-05-20T18:13:58.625Z,27.00
2023-05-20T18:16:28.874Z,26.90
2023-05-20T18:18:57.449Z,26.40
2023-05-20T18:21:26.412Z,26.40
2023-05-20T18:23:54.502Z,26.50
2023-05-20T18:26:22.630Z,26.20
2023-05-20T18:28:51.002Z,25.90
2023-05-20T18:31:19.066Z,25.60
2023-05-20T18:33:48.355Z,25.30
2023-05-20T18:36:16.336Z,25.30
2023-05-20T18:38:44.990Z,25.00
2023-05-20T18:41:14.116Z,24.70
2023-05-20T18:43:42.255Z,24.60
2023-05-20T18:46:11.312Z,24.20
2023-05-20T18:48:39.316Z,23.90
2023-05-20T18:51:08.750Z,23.80
2023-05-20T18:53:36.949Z,23.70
2023-05-20T18:56:05.748Z,23.60
2023-05-20T18:58:33.746Z,23.20
2023-05-20T19:01:02.900Z,23.10
2023-05-20T19:03:30.892Z,22.80
2023-05-20T19:05:58.915Z,22.50
2023-05-20T19:08:28.333Z,22.40
2023-05-20T19:10:56.272Z,22.00
2023-05-20T19:13:24.967Z,21.80
2023-05-20T19:15:52.936Z,21.80
2023-05-20T19:18:21.428Z,21.70
2023-05-20T19:20:49.551Z,21.70
2023-05-20T19:23:17.431Z,21.40
2023-05-20T19:25:46.736Z,21.30
2023-05-20T19:28:14.778Z,21.00
2023-05-20T19:30:42.956Z,20.90
2023-05-20T19:33:11.047Z,20.70
2023-05-20T19:35:39.439Z,20.40
2023-05-20T19:38:07.413Z,20.30
2023-05-20T19:40:36.755Z,20.20
2023-05-20T19:43:06.220Z,20.00
2023-05-20T19:45:36.246Z,19.80
2023-05-20T19:48:05.400Z,19.80
2023-05-20T19:50:34.049Z,19.70
2023-05-20T19:53:06.185Z,19.70
2023-05-20T19:55:34.731Z,19.50
2023-05-20T19:58:03.028Z,19.30
2023-05-20T20:00:32.371Z,19.20
2023-05-20T20:03:03.194Z,19.10
2023-05-20T20:05:31.262Z,19.10
2023-05-20T20:07:59.258Z,18.90
2023-05-20T20:10:27.332Z,18.80
2023-05-20T20:12:55.302Z,18.70
2023-05-20T20:15:24.193Z,18.70
2023-05-20T20:17:54.623Z,18.60
2023-05-20T20:20:23.443Z,18.50
2023-05-20T20:22:51.444Z,18.40
2023-05-20T20:25:20.397Z,18.40
2023-05-20T20:27:48.535Z,18.30
2023-05-20T20:30:16.975Z,18.20
2023-05-20T20:32:44.939Z,18.00
2023-05-20T20:35:14.414Z,17.90
2023-05-20T20:37:42.440Z,17.90
2023-05-20T20:40:13.568Z,17.80
2023-05-20T20:42:45.185Z,17.80
2023-05-20T20:45:13.475Z,17.80
2023-05-20T20:47:41.455Z,17.60
2023-05-20T20:50:11.421Z,17.40
2023-05-20T20:52:42.645Z,17.40
2023-05-20T20:55:11.224Z,17.30
2023-05-20T20:57:39.365Z,17.30
2023-05-20T21:00:16.379Z,17.30
2023-05-20T21:02:44.450Z,17.10
2023-05-20T21:05:12.421Z,17.10
2023-05-20T21:07:44.432Z,17.10
2023-05-20T21:10:12.460Z,16.90
2023-05-20T21:12:40.408Z,16.80
2023-05-20T21:15:09.898Z,16.60
2023-05-20T21:17:37.772Z,16.70
2023-05-20T21:20:07.511Z,16.70
2023-05-20T21:22:35.540Z,16.50
2023-05-20T21:25:05.323Z,16.50
2023-05-20T21:27:33.230Z,16.40
2023-05-20T21:30:01.249Z,16.40
2023-05-20T21:32:30.476Z,16.40
2023-05-20T21:34:58.584Z,16.20
2023-05-20T21:37:26.543Z,16.10
2023-05-20T21:39:54.543Z,16.20
2023-05-20T21:42:23.861Z,16.10
2023-05-20T21:44:51.813Z,16.00
2023-05-20T21:47:20.677Z,15.90
2023-05-20T21:49:49.177Z,15.80
2023-05-20T21:52:17.127Z,15.80
2023-05-20T21:54:45.036Z,15.70
2023-05-20T21:57:13.077Z,15.70
2023-05-20T21:59:42.376Z,15.70
2023-05-20T22:02:10.437Z,15.50
2023-05-20T22:04:38.499Z,15.50
2023-05-20T22:07:06.895Z,15.40
2023-05-20T22:09:34.808Z,15.40
2023-05-20T22:12:03.666Z,15.30
2023-05-20T22:14:31.667Z,15.20
2023-05-20T22:17:00.934Z,15.20
2023-05-20T22:19:30.534Z,15.20
2023-05-20T22:21:58.564Z,15.10
2023-05-20T22:24:26.512Z,15.10
2023-05-20T22:26:54.400Z,15.00
2023-05-20T22:29:22.356Z,15.00
2023-05-20T22:31:50.306Z,14.90
2023-05-20T22:34:19.650Z,14.80
2023-05-20T22:36:49.077Z,14.80
2023-05-20T22:39:16.978Z,14.70
2023-05-20T22:41:44.903Z,14.70
2023-05-20T22:44:12.904Z,14.70
2023-05-20T22:46:40.864Z,14.60
2023-05-20T22:49:10.208Z,14.60
2023-05-20T22:51:39.516Z,14.60
2023-05-20T22:54:07.735Z,14.50
2023-05-20T22:56:37.007Z,14.50
2023-05-20T22:59:04.910Z,14.50
2023-05-20T23:01:32.968Z,14.20
2023-05-20T23:04:01.016Z,14.30
2023-05-20T23:06:28.940Z,14.30
2023-05-20T23:08:58.207Z,14.30
2023-05-20T23:11:26.480Z,14.20
2023-05-20T23:13:54.438Z,14.20
2023-05-20T23:16:22.503Z,14.10
2023-05-20T23:18:50.601Z,14.10
2023-05-20T23:21:19.388Z,14.00
2023-05-20T23:23:47.395Z,14.00
2023-05-20T23:26:16.711Z,14.00
2023-05-20T23:28:44.576Z,13.90
2023-05-20T23:31:14.708Z,13.90
2023-05-20T23:33:42.902Z,13.90
2023-05-20T23:36:12.432Z,13.60
2023-05-20T23:38:40.465Z,13.90
2023-05-20T23:41:08.390Z,13.80
2023-05-20T23:43:37.708Z,13.80
2023-05-20T23:46:05.819Z,13.70
2023-05-20T23:48:33.733Z,13.70
2023-05-20T23:51:01.591Z,13.70
2023-05-20T23:53:29.573Z,13.70
2023-05-20T23:55:57.439Z,13.60
2023-05-20T23:58:25.517Z,13.60
